Mid Delta Regional Airport
KGLH : rendu visible

Aérodrome :











RETROUVEZ-NOUS SUR...

 
LOGIN :

S'inscrire | Disclaimer

   EN    FR    IT 

 









Légende :    VFR   VFR Marginal   IFR   IFR Intensif   IFR Très Intensif
Visi : 
Plafond : 
>= 8 km
>= 3000ft
5 à 8 km
1000 à 3000 ft
1500m à 5 km
500 à 1000 ft
800 à 1500m
200 à 500 ft
< 800m
< 200 ft
Symboles :   Orages  Brouillard  Fortes neiges  Fortes précipitations  Vent > 20 kt






- Altitude de l'aérodrome : 131 ft
- Code IATA : GLH


KGLH - Mid Delta Regional

DERNIER METAR :
  • 120453Z AUTO 07004KT 10SM CLR 02/M01 A3049 RMK AO2 SLP333 T00221011

METARs EXPIRÉS :
  • 120353Z AUTO 06004KT 10SM CLR 02/00 A3049 RMK AO2 SLP334 T00170000
  • 120253Z AUTO 00000KT 10SM CLR 02/00 A3049 RMK AO2 SLP335 T00220000 58001

TAF KGLH
Valide du 12 à 00h jusqu'au 13 à 00h UTC


112339Z 1200/1224 07004KT P6SM SKC
FM121600 12008KT P6SM SKC



MET'MAP, la Météo Aéronautique d'un coup d'oeil ! - Copyright ORBIFLY Décembre 2007 - Disclaimer

ORBIFLY MET'MAP TEAM :

Programmation & Développement : Alexandra Zaïnal
Sur une idée originale de : Baudouin d'Aumeries
Assistance à la programmation : Marc-Olivier Méhu
Soutien technique & logistique : Manuel Goepfert

Contact : metmap@orbifly.com




SOURCES & CREDITS :

   NOAA       Earth
Advisory